Richmond South's Hourly Summary for Saturday, July 7, 2018
Hour Temp
(f)
RH
(%)
Solar Rad.
(MJ/m2)
Rainfall
(in)
Wind
(mph)
7/7/2018 12:00 AM 77 91 0 0 1.15
7/7/2018 1:00 AM 76 87 0 0.01 3.98
7/7/2018 2:00 AM 74 89 0 0 1.41
7/7/2018 3:00 AM 75 94 0 0 0.56
7/7/2018 4:00 AM 74 95 0 0 0.05
7/7/2018 5:00 AM 73 96 0 0 0
7/7/2018 6:00 AM 73 96 0 0 0.01
7/7/2018 7:00 AM 73 95 0.03 0 2.13
7/7/2018 8:00 AM 75 89 0.39 0 3.21
7/7/2018 9:00 AM 79 82 0.81 0 4.75
7/7/2018 10:00 AM 82 73 1.1 0 4.28
7/7/2018 11:00 AM 84 63 1.9 0 3.59
7/7/2018 12:00 PM 86 58 2.35 0 3.34
7/7/2018 1:00 PM 87 53 2.49 0 3.91
7/7/2018 2:00 PM 88 55 3 0 5.66
7/7/2018 3:00 PM 86 63 2.56 0 7.56
7/7/2018 4:00 PM 81 75 0.63 0 4.31
7/7/2018 5:00 PM 81 80 0.36 0 1.39
7/7/2018 6:00 PM 82 77 0.24 0 2.8
7/7/2018 7:00 PM 81 74 0.22 0 2.27
7/7/2018 8:00 PM 80 79 0.12 0 3.9
7/7/2018 9:00 PM 79 80 0.02 0 0.27
7/7/2018 10:00 PM 78 84 0 0 0.08
7/7/2018 11:00 PM 77 90 0 0 0
Data Summary 79 79 16.22 0.01 2.53